sensor_id;sensor_type;location;lat;lon;timestamp;P1;durP1;ratioP1;P2;durP2;ratioP2
8964;SDS011;4517;49.020;12.066;2022-10-19T00:01:03;18.37;;;16.40;;
8964;SDS011;4517;49.020;12.066;2022-10-19T00:03:33;26.63;;;17.03;;
8964;SDS011;4517;49.020;12.066;2022-10-19T00:05:59;23.47;;;17.33;;
8964;SDS011;4517;49.020;12.066;2022-10-19T00:08:25;24.13;;;16.30;;
8964;SDS011;4517;49.020;12.066;2022-10-19T00:10:51;17.13;;;15.00;;
8964;SDS011;4517;49.020;12.066;2022-10-19T00:13:17;18.07;;;15.30;;
8964;SDS011;4517;49.020;12.066;2022-10-19T00:15:42;31.03;;;15.60;;
8964;SDS011;4517;49.020;12.066;2022-10-19T00:18:09;22.30;;;15.87;;
8964;SDS011;4517;49.020;12.066;2022-10-19T00:20:35;18.50;;;15.57;;
8964;SDS011;4517;49.020;12.066;2022-10-19T00:23:01;20.77;;;16.40;;
8964;SDS011;4517;49.020;12.066;2022-10-19T00:25:26;20.90;;;15.90;;
8964;SDS011;4517;49.020;12.066;2022-10-19T00:27:52;26.20;;;15.57;;
8964;SDS011;4517;49.020;12.066;2022-10-19T00:30:18;18.07;;;16.27;;
8964;SDS011;4517;49.020;12.066;2022-10-19T00:32:43;18.13;;;15.40;;
8964;SDS011;4517;49.020;12.066;2022-10-19T00:35:09;24.60;;;17.23;;
8964;SDS011;4517;49.020;12.066;2022-10-19T00:37:34;23.57;;;16.20;;
8964;SDS011;4517;49.020;12.066;2022-10-19T00:40:00;21.63;;;17.60;;
8964;SDS011;4517;49.020;12.066;2022-10-19T00:42:25;19.63;;;16.90;;
8964;SDS011;4517;49.020;12.066;2022-10-19T00:47:16;22.30;;;16.90;;
8964;SDS011;4517;49.020;12.066;2022-10-19T00:49:46;17.13;;;15.30;;
8964;SDS011;4517;49.020;12.066;2022-10-19T00:52:13;18.43;;;15.10;;
8964;SDS011;4517;49.020;12.066;2022-10-19T00:54:43;18.10;;;16.10;;
8964;SDS011;4517;49.020;12.066;2022-10-19T00:57:11;20.00;;;17.20;;
8964;SDS011;4517;49.020;12.066;2022-10-19T00:59:37;17.77;;;15.90;;
8964;SDS011;4517;49.020;12.066;2022-10-19T01:02:05;19.40;;;15.57;;
8964;SDS011;4517;49.020;12.066;2022-10-19T01:04:31;19.97;;;17.93;;
8964;SDS011;4517;49.020;12.066;2022-10-19T01:07:01;15.87;;;14.30;;
8964;SDS011;4517;49.020;12.066;2022-10-19T01:09:28;27.17;;;14.97;;
8964;SDS011;4517;49.020;12.066;2022-10-19T01:12:17;17.50;;;14.97;;
8964;SDS011;4517;49.020;12.066;2022-10-19T01:18:01;19.00;;;17.20;;
8964;SDS011;4517;49.020;12.066;2022-10-19T01:33:52;18.30;;;15.60;;
8964;SDS011;4517;49.020;12.066;2022-10-19T01:36:36;16.77;;;15.07;;
8964;SDS011;4517;49.020;12.066;2022-10-19T01:47:41;19.17;;;16.50;;
8964;SDS011;4517;49.020;12.066;2022-10-19T01:50:12;22.30;;;15.90;;
8964;SDS011;4517;49.020;12.066;2022-10-19T01:52:39;18.03;;;16.13;;
8964;SDS011;4517;49.020;12.066;2022-10-19T01:55:06;16.33;;;14.63;;
8964;SDS011;4517;49.020;12.066;2022-10-19T01:57:38;17.07;;;15.40;;
8964;SDS011;4517;49.020;12.066;2022-10-19T02:00:09;17.67;;;15.80;;
8964;SDS011;4517;49.020;12.066;2022-10-19T02:02:39;18.53;;;15.70;;
8964;SDS011;4517;49.020;12.066;2022-10-19T02:05:09;22.20;;;17.53;;
8964;SDS011;4517;49.020;12.066;2022-10-19T02:07:36;22.77;;;19.27;;
8964;SDS011;4517;49.020;12.066;2022-10-19T02:10:04;20.10;;;17.10;;
8964;SDS011;4517;49.020;12.066;2022-10-19T02:12:30;20.60;;;16.43;;
8964;SDS011;4517;49.020;12.066;2022-10-19T02:14:58;22.87;;;17.80;;
8964;SDS011;4517;49.020;12.066;2022-10-19T02:17:30;19.37;;;17.27;;
8964;SDS011;4517;49.020;12.066;2022-10-19T02:20:01;22.07;;;17.40;;
8964;SDS011;4517;49.020;12.066;2022-10-19T02:22:27;28.83;;;17.80;;
8964;SDS011;4517;49.020;12.066;2022-10-19T02:24:53;27.03;;;18.90;;
8964;SDS011;4517;49.020;12.066;2022-10-19T02:27:18;22.30;;;17.80;;
8964;SDS011;4517;49.020;12.066;2022-10-19T02:29:44;21.20;;;17.13;;
8964;SDS011;4517;49.020;12.066;2022-10-19T02:32:10;28.97;;;18.60;;
8964;SDS011;4517;49.020;12.066;2022-10-19T02:34:36;24.47;;;17.37;;
8964;SDS011;4517;49.020;12.066;2022-10-19T02:37:03;21.63;;;16.90;;
8964;SDS011;4517;49.020;12.066;2022-10-19T02:39:29;18.50;;;16.27;;
8964;SDS011;4517;49.020;12.066;2022-10-19T02:42:06;20.33;;;16.37;;
8964;SDS011;4517;49.020;12.066;2022-10-19T02:44:39;26.83;;;16.60;;
8964;SDS011;4517;49.020;12.066;2022-10-19T02:47:08;24.23;;;16.00;;
8964;SDS011;4517;49.020;12.066;2022-10-19T02:49:38;21.00;;;16.53;;
8964;SDS011;4517;49.020;12.066;2022-10-19T02:52:06;19.60;;;15.50;;
8964;SDS011;4517;49.020;12.066;2022-10-19T02:54:33;25.47;;;17.23;;
8964;SDS011;4517;49.020;12.066;2022-10-19T02:56:59;21.77;;;15.53;;
8964;SDS011;4517;49.020;12.066;2022-10-19T02:59:25;17.53;;;15.00;;
8964;SDS011;4517;49.020;12.066;2022-10-19T03:01:51;27.67;;;16.50;;
8964;SDS011;4517;49.020;12.066;2022-10-19T03:04:16;24.43;;;16.40;;
8964;SDS011;4517;49.020;12.066;2022-10-19T03:06:42;25.73;;;16.33;;
8964;SDS011;4517;49.020;12.066;2022-10-19T03:09:08;22.27;;;16.77;;
8964;SDS011;4517;49.020;12.066;2022-10-19T03:11:34;25.10;;;16.13;;
8964;SDS011;4517;49.020;12.066;2022-10-19T03:13:59;26.50;;;15.83;;
8964;SDS011;4517;49.020;12.066;2022-10-19T03:16:25;26.80;;;16.47;;
8964;SDS011;4517;49.020;12.066;2022-10-19T03:18:50;22.50;;;16.00;;
8964;SDS011;4517;49.020;12.066;2022-10-19T03:21:16;26.10;;;16.20;;
8964;SDS011;4517;49.020;12.066;2022-10-19T03:23:42;23.37;;;15.73;;
8964;SDS011;4517;49.020;12.066;2022-10-19T03:26:09;24.97;;;16.30;;
8964;SDS011;4517;49.020;12.066;2022-10-19T03:28:39;26.50;;;17.40;;
8964;SDS011;4517;49.020;12.066;2022-10-19T03:31:05;29.17;;;18.10;;
8964;SDS011;4517;49.020;12.066;2022-10-19T03:33:31;27.17;;;16.40;;
8964;SDS011;4517;49.020;12.066;2022-10-19T03:36:15;29.53;;;17.23;;
8964;SDS011;4517;49.020;12.066;2022-10-19T03:38:55;27.57;;;17.30;;
8964;SDS011;4517;49.020;12.066;2022-10-19T03:41:26;24.23;;;17.73;;
8964;SDS011;4517;49.020;12.066;2022-10-19T03:43:53;28.33;;;17.97;;
8964;SDS011;4517;49.020;12.066;2022-10-19T03:46:19;28.47;;;17.20;;
8964;SDS011;4517;49.020;12.066;2022-10-19T03:48:44;27.17;;;17.20;;
8964;SDS011;4517;49.020;12.066;2022-10-19T03:51:11;28.40;;;16.90;;
8964;SDS011;4517;49.020;12.066;2022-10-19T03:53:39;27.30;;;17.57;;
8964;SDS011;4517;49.020;12.066;2022-10-19T03:56:06;23.90;;;15.60;;
8964;SDS011;4517;49.020;12.066;2022-10-19T03:58:36;28.40;;;17.50;;
8964;SDS011;4517;49.020;12.066;2022-10-19T04:01:05;25.87;;;16.30;;
8964;SDS011;4517;49.020;12.066;2022-10-19T04:03:35;27.50;;;18.03;;
8964;SDS011;4517;49.020;12.066;2022-10-19T04:06:05;30.13;;;16.93;;
8964;SDS011;4517;49.020;12.066;2022-10-19T04:08:32;22.90;;;16.00;;
8964;SDS011;4517;49.020;12.066;2022-10-19T04:10:59;22.97;;;16.27;;
8964;SDS011;4517;49.020;12.066;2022-10-19T04:13:25;25.27;;;17.27;;
8964;SDS011;4517;49.020;12.066;2022-10-19T04:15:52;28.10;;;17.53;;
8964;SDS011;4517;49.020;12.066;2022-10-19T04:18:17;22.30;;;15.80;;
8964;SDS011;4517;49.020;12.066;2022-10-19T04:20:42;31.43;;;16.47;;
8964;SDS011;4517;49.020;12.066;2022-10-19T04:23:08;23.33;;;17.70;;
8964;SDS011;4517;49.020;12.066;2022-10-19T04:25:34;21.23;;;16.00;;
8964;SDS011;4517;49.020;12.066;2022-10-19T04:28:00;23.80;;;15.80;;
8964;SDS011;4517;49.020;12.066;2022-10-19T04:30:25;20.07;;;14.63;;
8964;SDS011;4517;49.020;12.066;2022-10-19T04:32:51;23.03;;;16.00;;
8964;SDS011;4517;49.020;12.066;2022-10-19T04:35:16;25.27;;;15.73;;
8964;SDS011;4517;49.020;12.066;2022-10-19T04:37:42;24.40;;;17.40;;
8964;SDS011;4517;49.020;12.066;2022-10-19T04:40:08;22.20;;;16.47;;
8964;SDS011;4517;49.020;12.066;2022-10-19T04:42:34;22.50;;;15.23;;
8964;SDS011;4517;49.020;12.066;2022-10-19T04:45:00;26.03;;;15.97;;
8964;SDS011;4517;49.020;12.066;2022-10-19T04:47:25;21.33;;;15.07;;
8964;SDS011;4517;49.020;12.066;2022-10-19T04:49:52;23.70;;;15.87;;
8964;SDS011;4517;49.020;12.066;2022-10-19T04:52:18;20.47;;;14.73;;
8964;SDS011;4517;49.020;12.066;2022-10-19T04:54:43;20.10;;;14.60;;
8964;SDS011;4517;49.020;12.066;2022-10-19T04:57:10;24.50;;;14.60;;
8964;SDS011;4517;49.020;12.066;2022-10-19T04:59:35;20.07;;;14.80;;
8964;SDS011;4517;49.020;12.066;2022-10-19T05:02:01;14.93;;;13.27;;
8964;SDS011;4517;49.020;12.066;2022-10-19T05:04:27;16.80;;;14.03;;
8964;SDS011;4517;49.020;12.066;2022-10-19T05:06:52;19.80;;;14.43;;
8964;SDS011;4517;49.020;12.066;2022-10-19T05:09:18;22.77;;;15.00;;
8964;SDS011;4517;49.020;12.066;2022-10-19T05:11:43;21.63;;;14.47;;
8964;SDS011;4517;49.020;12.066;2022-10-19T05:14:09;22.53;;;14.33;;
8964;SDS011;4517;49.020;12.066;2022-10-19T05:16:35;16.70;;;14.30;;
8964;SDS011;4517;49.020;12.066;2022-10-19T05:19:00;20.23;;;13.10;;
8964;SDS011;4517;49.020;12.066;2022-10-19T05:21:26;18.40;;;13.57;;
8964;SDS011;4517;49.020;12.066;2022-10-19T05:23:53;21.07;;;14.40;;
8964;SDS011;4517;49.020;12.066;2022-10-19T05:26:21;21.27;;;14.17;;
8964;SDS011;4517;49.020;12.066;2022-10-19T05:28:48;19.77;;;13.83;;
8964;SDS011;4517;49.020;12.066;2022-10-19T05:31:16;22.93;;;14.60;;
8964;SDS011;4517;49.020;12.066;2022-10-19T05:33:43;18.37;;;13.50;;
8964;SDS011;4517;49.020;12.066;2022-10-19T05:36:19;17.30;;;12.90;;
8964;SDS011;4517;49.020;12.066;2022-10-19T05:38:46;22.40;;;13.53;;
8964;SDS011;4517;49.020;12.066;2022-10-19T05:41:13;17.57;;;14.33;;
8964;SDS011;4517;49.020;12.066;2022-10-19T05:43:40;19.70;;;16.20;;
8964;SDS011;4517;49.020;12.066;2022-10-19T05:46:11;18.60;;;14.90;;
8964;SDS011;4517;49.020;12.066;2022-10-19T05:48:39;24.47;;;16.40;;
8964;SDS011;4517;49.020;12.066;2022-10-19T05:51:06;21.73;;;14.33;;
8964;SDS011;4517;49.020;12.066;2022-10-19T05:53:34;24.40;;;15.27;;
8964;SDS011;4517;49.020;12.066;2022-10-19T05:55:59;35.00;;;16.37;;
8964;SDS011;4517;49.020;12.066;2022-10-19T05:58:25;22.70;;;15.87;;
8964;SDS011;4517;49.020;12.066;2022-10-19T06:00:52;28.60;;;16.70;;
8964;SDS011;4517;49.020;12.066;2022-10-19T06:03:19;21.43;;;13.07;;
8964;SDS011;4517;49.020;12.066;2022-10-19T06:05:46;26.70;;;14.03;;
8964;SDS011;4517;49.020;12.066;2022-10-19T06:08:13;28.77;;;16.10;;
8964;SDS011;4517;49.020;12.066;2022-10-19T06:10:39;28.40;;;14.83;;
8964;SDS011;4517;49.020;12.066;2022-10-19T06:13:04;25.63;;;15.80;;
8964;SDS011;4517;49.020;12.066;2022-10-19T06:15:34;21.67;;;14.13;;
8964;SDS011;4517;49.020;12.066;2022-10-19T06:18:02;28.13;;;15.63;;
8964;SDS011;4517;49.020;12.066;2022-10-19T06:20:28;22.30;;;13.80;;
8964;SDS011;4517;49.020;12.066;2022-10-19T06:22:54;20.17;;;15.23;;
8964;SDS011;4517;49.020;12.066;2022-10-19T06:25:20;22.67;;;14.50;;
8964;SDS011;4517;49.020;12.066;2022-10-19T06:27:46;21.30;;;13.97;;
8964;SDS011;4517;49.020;12.066;2022-10-19T06:30:11;22.50;;;14.80;;
8964;SDS011;4517;49.020;12.066;2022-10-19T06:32:37;21.40;;;16.27;;
8964;SDS011;4517;49.020;12.066;2022-10-19T06:35:03;35.23;;;13.70;;
8964;SDS011;4517;49.020;12.066;2022-10-19T06:37:29;20.80;;;14.07;;
8964;SDS011;4517;49.020;12.066;2022-10-19T06:39:54;17.37;;;12.60;;
8964;SDS011;4517;49.020;12.066;2022-10-19T06:42:20;21.87;;;15.53;;
8964;SDS011;4517;49.020;12.066;2022-10-19T06:44:45;20.17;;;14.13;;
8964;SDS011;4517;49.020;12.066;2022-10-19T06:47:11;26.33;;;13.40;;
8964;SDS011;4517;49.020;12.066;2022-10-19T06:49:36;16.60;;;13.63;;
8964;SDS011;4517;49.020;12.066;2022-10-19T06:52:02;19.10;;;14.20;;
8964;SDS011;4517;49.020;12.066;2022-10-19T06:54:29;18.13;;;14.30;;
8964;SDS011;4517;49.020;12.066;2022-10-19T06:56:55;18.37;;;12.93;;
8964;SDS011;4517;49.020;12.066;2022-10-19T06:59:21;12.87;;;11.57;;
8964;SDS011;4517;49.020;12.066;2022-10-19T07:01:46;22.70;;;13.00;;
8964;SDS011;4517;49.020;12.066;2022-10-19T07:04:12;16.20;;;13.30;;
8964;SDS011;4517;49.020;12.066;2022-10-19T07:06:37;17.03;;;12.03;;
8964;SDS011;4517;49.020;12.066;2022-10-19T07:09:03;13.80;;;12.30;;
8964;SDS011;4517;49.020;12.066;2022-10-19T07:11:29;13.73;;;11.83;;
8964;SDS011;4517;49.020;12.066;2022-10-19T07:13:54;14.77;;;12.43;;
8964;SDS011;4517;49.020;12.066;2022-10-19T07:16:20;19.93;;;11.40;;
8964;SDS011;4517;49.020;12.066;2022-10-19T07:18:46;15.37;;;12.10;;
8964;SDS011;4517;49.020;12.066;2022-10-19T07:21:13;13.37;;;11.97;;
8964;SDS011;4517;49.020;12.066;2022-10-19T07:23:40;13.97;;;12.57;;
8964;SDS011;4517;49.020;12.066;2022-10-19T07:26:09;13.80;;;12.30;;
8964;SDS011;4517;49.020;12.066;2022-10-19T07:28:37;14.27;;;12.27;;
8964;SDS011;4517;49.020;12.066;2022-10-19T07:31:05;13.40;;;12.00;;
8964;SDS011;4517;49.020;12.066;2022-10-19T07:33:32;13.10;;;11.80;;
8964;SDS011;4517;49.020;12.066;2022-10-19T07:35:58;13.30;;;12.07;;
8964;SDS011;4517;49.020;12.066;2022-10-19T07:38:25;14.83;;;12.73;;
8964;SDS011;4517;49.020;12.066;2022-10-19T07:40:50;15.07;;;12.40;;
8964;SDS011;4517;49.020;12.066;2022-10-19T07:43:16;20.03;;;12.63;;
8964;SDS011;4517;49.020;12.066;2022-10-19T07:45:42;19.23;;;12.20;;
8964;SDS011;4517;49.020;12.066;2022-10-19T07:48:08;16.60;;;13.90;;
8964;SDS011;4517;49.020;12.066;2022-10-19T07:50:34;13.23;;;11.53;;
8964;SDS011;4517;49.020;12.066;2022-10-19T07:52:59;14.70;;;13.20;;
8964;SDS011;4517;49.020;12.066;2022-10-19T07:55:27;16.77;;;13.87;;
8964;SDS011;4517;49.020;12.066;2022-10-19T07:57:52;20.23;;;18.33;;
8964;SDS011;4517;49.020;12.066;2022-10-19T08:00:19;16.87;;;14.97;;
8964;SDS011;4517;49.020;12.066;2022-10-19T08:02:44;13.83;;;12.33;;
8964;SDS011;4517;49.020;12.066;2022-10-19T08:05:10;13.37;;;12.03;;
8964;SDS011;4517;49.020;12.066;2022-10-19T08:07:35;16.00;;;13.43;;
8964;SDS011;4517;49.020;12.066;2022-10-19T08:10:02;14.33;;;12.93;;
8964;SDS011;4517;49.020;12.066;2022-10-19T08:12:28;15.27;;;13.00;;
8964;SDS011;4517;49.020;12.066;2022-10-19T08:14:53;15.57;;;14.07;;
8964;SDS011;4517;49.020;12.066;2022-10-19T08:17:19;16.17;;;14.43;;
8964;SDS011;4517;49.020;12.066;2022-10-19T08:19:45;15.40;;;13.70;;
8964;SDS011;4517;49.020;12.066;2022-10-19T08:22:11;15.63;;;14.13;;
8964;SDS011;4517;49.020;12.066;2022-10-19T08:24:36;14.53;;;13.17;;
8964;SDS011;4517;49.020;12.066;2022-10-19T08:27:02;16.53;;;14.20;;
8964;SDS011;4517;49.020;12.066;2022-10-19T08:29:27;14.47;;;12.97;;
8964;SDS011;4517;49.020;12.066;2022-10-19T08:31:53;17.07;;;14.73;;
8964;SDS011;4517;49.020;12.066;2022-10-19T08:34:19;14.80;;;13.40;;
8964;SDS011;4517;49.020;12.066;2022-10-19T08:36:44;24.17;;;16.93;;
8964;SDS011;4517;49.020;12.066;2022-10-19T08:39:10;15.27;;;13.77;;
8964;SDS011;4517;49.020;12.066;2022-10-19T08:44:22;15.40;;;13.80;;
8964;SDS011;4517;49.020;12.066;2022-10-19T08:47:31;15.60;;;14.00;;
8964;SDS011;4517;49.020;12.066;2022-10-19T08:50:20;14.60;;;13.10;;
8964;SDS011;4517;49.020;12.066;2022-10-19T08:53:09;15.63;;;14.00;;
8964;SDS011;4517;49.020;12.066;2022-10-19T08:58:39;14.23;;;12.87;;
8964;SDS011;4517;49.020;12.066;2022-10-19T09:01:15;16.87;;;12.77;;
8964;SDS011;4517;49.020;12.066;2022-10-19T09:04:11;14.43;;;13.03;;
8964;SDS011;4517;49.020;12.066;2022-10-19T09:09:27;14.90;;;13.50;;
8964;SDS011;4517;49.020;12.066;2022-10-19T09:11:56;14.90;;;13.50;;
8964;SDS011;4517;49.020;12.066;2022-10-19T09:14:29;22.03;;;14.40;;
8964;SDS011;4517;49.020;12.066;2022-10-19T09:16:59;14.70;;;13.30;;
8964;SDS011;4517;49.020;12.066;2022-10-19T09:19:34;14.40;;;13.00;;
8964;SDS011;4517;49.020;12.066;2022-10-19T09:22:04;14.00;;;12.60;;
8964;SDS011;4517;49.020;12.066;2022-10-19T09:24:50;15.63;;;13.60;;
8964;SDS011;4517;49.020;12.066;2022-10-19T09:27:38;16.33;;;14.70;;
8964;SDS011;4517;49.020;12.066;2022-10-19T09:30:04;16.67;;;14.87;;
8964;SDS011;4517;49.020;12.066;2022-10-19T09:32:38;16.30;;;14.60;;
8964;SDS011;4517;49.020;12.066;2022-10-19T09:37:51;13.43;;;12.03;;
8964;SDS011;4517;49.020;12.066;2022-10-19T09:40:22;14.50;;;13.07;;
8964;SDS011;4517;49.020;12.066;2022-10-19T09:42:50;13.07;;;11.80;;
8964;SDS011;4517;49.020;12.066;2022-10-19T09:48:26;12.70;;;11.70;;
8964;SDS011;4517;49.020;12.066;2022-10-19T09:51:00;12.97;;;11.77;;
8964;SDS011;4517;49.020;12.066;2022-10-19T09:53:27;13.10;;;11.80;;
8964;SDS011;4517;49.020;12.066;2022-10-19T09:58:31;12.83;;;11.63;;
8964;SDS011;4517;49.020;12.066;2022-10-19T10:00:57;14.60;;;12.80;;
8964;SDS011;4517;49.020;12.066;2022-10-19T10:03:25;14.47;;;13.07;;
8964;SDS011;4517;49.020;12.066;2022-10-19T10:05:57;14.10;;;12.73;;
8964;SDS011;4517;49.020;12.066;2022-10-19T10:08:29;13.17;;;11.87;;
8964;SDS011;4517;49.020;12.066;2022-10-19T10:11:09;17.17;;;13.70;;
8964;SDS011;4517;49.020;12.066;2022-10-19T10:13:43;18.20;;;15.13;;
8964;SDS011;4517;49.020;12.066;2022-10-19T10:16:14;15.00;;;13.50;;
8964;SDS011;4517;49.020;12.066;2022-10-19T10:18:55;15.17;;;13.77;;
8964;SDS011;4517;49.020;12.066;2022-10-19T10:21:27;15.97;;;14.37;;
8964;SDS011;4517;49.020;12.066;2022-10-19T10:26:39;14.90;;;13.50;;
8964;SDS011;4517;49.020;12.066;2022-10-19T10:31:54;14.43;;;13.03;;
8964;SDS011;4517;49.020;12.066;2022-10-19T10:34:29;15.47;;;14.07;;
8964;SDS011;4517;49.020;12.066;2022-10-19T10:37:06;14.13;;;12.63;;
8964;SDS011;4517;49.020;12.066;2022-10-19T10:39:42;15.60;;;14.13;;
8964;SDS011;4517;49.020;12.066;2022-10-19T10:42:10;15.23;;;13.43;;
8964;SDS011;4517;49.020;12.066;2022-10-19T10:44:46;14.70;;;11.97;;
8964;SDS011;4517;49.020;12.066;2022-10-19T10:47:15;14.67;;;13.17;;
8964;SDS011;4517;49.020;12.066;2022-10-19T10:49:43;13.70;;;12.30;;
8964;SDS011;4517;49.020;12.066;2022-10-19T10:52:25;13.90;;;12.60;;
8964;SDS011;4517;49.020;12.066;2022-10-19T10:55:01;14.60;;;13.20;;
8964;SDS011;4517;49.020;12.066;2022-10-19T10:57:39;12.50;;;11.30;;
8964;SDS011;4517;49.020;12.066;2022-10-19T11:00:19;14.43;;;11.70;;
8964;SDS011;4517;49.020;12.066;2022-10-19T11:02:52;14.53;;;13.00;;
8964;SDS011;4517;49.020;12.066;2022-10-19T11:05:39;12.70;;;11.50;;
8964;SDS011;4517;49.020;12.066;2022-10-19T11:10:38;14.33;;;12.83;;
8964;SDS011;4517;49.020;12.066;2022-10-19T11:13:40;13.13;;;11.90;;
8964;SDS011;4517;49.020;12.066;2022-10-19T11:16:14;13.30;;;12.10;;
8964;SDS011;4517;49.020;12.066;2022-10-19T11:24:05;12.60;;;11.50;;
8964;SDS011;4517;49.020;12.066;2022-10-19T11:29:57;12.73;;;11.43;;
8964;SDS011;4517;49.020;12.066;2022-10-19T11:32:50;13.03;;;11.93;;
8964;SDS011;4517;49.020;12.066;2022-10-19T11:40:38;13.43;;;11.90;;
8964;SDS011;4517;49.020;12.066;2022-10-19T11:43:15;13.97;;;12.67;;
8964;SDS011;4517;49.020;12.066;2022-10-19T11:46:11;13.53;;;12.33;;
8964;SDS011;4517;49.020;12.066;2022-10-19T11:54:04;13.73;;;12.33;;
8964;SDS011;4517;49.020;12.066;2022-10-19T11:56:35;14.23;;;12.13;;
8964;SDS011;4517;49.020;12.066;2022-10-19T12:05:15;12.30;;;11.20;;
8964;SDS011;4517;49.020;12.066;2022-10-19T12:10:36;13.10;;;12.00;;
8964;SDS011;4517;49.020;12.066;2022-10-19T12:13:12;12.70;;;11.60;;
8964;SDS011;4517;49.020;12.066;2022-10-19T12:15:42;13.40;;;12.07;;
8964;SDS011;4517;49.020;12.066;2022-10-19T12:18:21;12.67;;;11.47;;
8964;SDS011;4517;49.020;12.066;2022-10-19T12:20:59;14.80;;;12.97;;
8964;SDS011;4517;49.020;12.066;2022-10-19T12:26:06;13.17;;;11.80;;
8964;SDS011;4517;49.020;12.066;2022-10-19T12:28:35;12.23;;;11.13;;
8964;SDS011;4517;49.020;12.066;2022-10-19T12:31:03;13.60;;;12.43;;
8964;SDS011;4517;49.020;12.066;2022-10-19T12:39:20;13.70;;;12.60;;
8964;SDS011;4517;49.020;12.066;2022-10-19T12:47:26;12.10;;;11.10;;
8964;SDS011;4517;49.020;12.066;2022-10-19T12:49:55;13.47;;;12.33;;
8964;SDS011;4517;49.020;12.066;2022-10-19T12:57:42;12.73;;;11.73;;
8964;SDS011;4517;49.020;12.066;2022-10-19T13:00:22;12.90;;;11.70;;
8964;SDS011;4517;49.020;12.066;2022-10-19T13:03:23;12.67;;;11.77;;
8964;SDS011;4517;49.020;12.066;2022-10-19T13:05:58;15.17;;;13.67;;
8964;SDS011;4517;49.020;12.066;2022-10-19T13:08:47;14.80;;;13.40;;
8964;SDS011;4517;49.020;12.066;2022-10-19T13:11:20;13.87;;;12.40;;
8964;SDS011;4517;49.020;12.066;2022-10-19T13:21:42;13.13;;;11.90;;
8964;SDS011;4517;49.020;12.066;2022-10-19T13:26:44;13.77;;;12.63;;
8964;SDS011;4517;49.020;12.066;2022-10-19T13:29:26;12.37;;;11.47;;
8964;SDS011;4517;49.020;12.066;2022-10-19T13:43:19;13.33;;;12.33;;
8964;SDS011;4517;49.020;12.066;2022-10-19T13:46:03;14.03;;;12.83;;
8964;SDS011;4517;49.020;12.066;2022-10-19T13:48:36;13.70;;;12.60;;
8964;SDS011;4517;49.020;12.066;2022-10-19T13:54:14;15.30;;;13.27;;
8964;SDS011;4517;49.020;12.066;2022-10-19T13:57:05;12.03;;;11.03;;
8964;SDS011;4517;49.020;12.066;2022-10-19T13:59:50;12.10;;;11.00;;
8964;SDS011;4517;49.020;12.066;2022-10-19T14:10:59;14.00;;;12.43;;
8964;SDS011;4517;49.020;12.066;2022-10-19T14:13:28;12.77;;;11.83;;
8964;SDS011;4517;49.020;12.066;2022-10-19T14:15:54;14.37;;;12.93;;
8964;SDS011;4517;49.020;12.066;2022-10-19T14:18:29;17.73;;;11.80;;
8964;SDS011;4517;49.020;12.066;2022-10-19T14:21:00;15.40;;;12.53;;
8964;SDS011;4517;49.020;12.066;2022-10-19T14:23:31;15.07;;;13.50;;
8964;SDS011;4517;49.020;12.066;2022-10-19T14:26:00;13.20;;;11.90;;
8964;SDS011;4517;49.020;12.066;2022-10-19T14:28:29;13.23;;;11.83;;
8964;SDS011;4517;49.020;12.066;2022-10-19T14:31:06;12.93;;;11.77;;
8964;SDS011;4517;49.020;12.066;2022-10-19T14:33:38;12.70;;;11.60;;
8964;SDS011;4517;49.020;12.066;2022-10-19T14:36:18;13.20;;;11.90;;
8964;SDS011;4517;49.020;12.066;2022-10-19T14:38:58;13.47;;;12.27;;
8964;SDS011;4517;49.020;12.066;2022-10-19T14:43:55;12.17;;;11.03;;
8964;SDS011;4517;49.020;12.066;2022-10-19T14:46:40;13.90;;;11.33;;
8964;SDS011;4517;49.020;12.066;2022-10-19T14:49:19;11.27;;;10.17;;
8964;SDS011;4517;49.020;12.066;2022-10-19T14:51:48;15.00;;;12.00;;
8964;SDS011;4517;49.020;12.066;2022-10-19T14:54:33;12.37;;;11.37;;
8964;SDS011;4517;49.020;12.066;2022-10-19T15:00:25;11.87;;;10.87;;
8964;SDS011;4517;49.020;12.066;2022-10-19T15:05:25;12.10;;;10.97;;
8964;SDS011;4517;49.020;12.066;2022-10-19T15:07:54;12.40;;;11.37;;
8964;SDS011;4517;49.020;12.066;2022-10-19T15:10:22;12.27;;;10.93;;
8964;SDS011;4517;49.020;12.066;2022-10-19T15:12:56;12.53;;;11.43;;
8964;SDS011;4517;49.020;12.066;2022-10-19T15:15:27;11.70;;;10.77;;
8964;SDS011;4517;49.020;12.066;2022-10-19T15:18:01;12.70;;;11.60;;
8964;SDS011;4517;49.020;12.066;2022-10-19T15:20:33;12.30;;;11.37;;
8964;SDS011;4517;49.020;12.066;2022-10-19T15:26:00;12.70;;;11.70;;
8964;SDS011;4517;49.020;12.066;2022-10-19T15:28:32;11.40;;;10.30;;
8964;SDS011;4517;49.020;12.066;2022-10-19T15:31:00;12.03;;;11.13;;
8964;SDS011;4517;49.020;12.066;2022-10-19T15:33:33;13.43;;;12.10;;
8964;SDS011;4517;49.020;12.066;2022-10-19T15:36:05;12.63;;;11.40;;
8964;SDS011;4517;49.020;12.066;2022-10-19T15:38:33;12.33;;;11.30;;
8964;SDS011;4517;49.020;12.066;2022-10-19T15:41:00;13.13;;;11.33;;
8964;SDS011;4517;49.020;12.066;2022-10-19T15:48:50;16.63;;;13.20;;
8964;SDS011;4517;49.020;12.066;2022-10-19T15:53:50;14.40;;;10.33;;
8964;SDS011;4517;49.020;12.066;2022-10-19T15:56:17;11.13;;;10.23;;
8964;SDS011;4517;49.020;12.066;2022-10-19T15:58:47;10.73;;;9.63;;
8964;SDS011;4517;49.020;12.066;2022-10-19T16:01:18;11.40;;;10.40;;
8964;SDS011;4517;49.020;12.066;2022-10-19T16:03:48;13.27;;;12.00;;
8964;SDS011;4517;49.020;12.066;2022-10-19T16:06:15;11.57;;;10.53;;
8964;SDS011;4517;49.020;12.066;2022-10-19T16:08:42;16.03;;;11.23;;
8964;SDS011;4517;49.020;12.066;2022-10-19T16:11:16;12.63;;;11.50;;
8964;SDS011;4517;49.020;12.066;2022-10-19T16:13:43;13.00;;;11.90;;
8964;SDS011;4517;49.020;12.066;2022-10-19T16:16:11;14.70;;;12.20;;
8964;SDS011;4517;49.020;12.066;2022-10-19T16:18:44;12.97;;;11.87;;
8964;SDS011;4517;49.020;12.066;2022-10-19T16:21:10;13.03;;;11.93;;
8964;SDS011;4517;49.020;12.066;2022-10-19T16:23:35;16.30;;;13.53;;
8964;SDS011;4517;49.020;12.066;2022-10-19T16:26:03;13.23;;;11.93;;
8964;SDS011;4517;49.020;12.066;2022-10-19T16:28:29;15.83;;;14.10;;
8964;SDS011;4517;49.020;12.066;2022-10-19T16:30:55;14.90;;;12.70;;
8964;SDS011;4517;49.020;12.066;2022-10-19T16:33:21;16.17;;;12.50;;
8964;SDS011;4517;49.020;12.066;2022-10-19T16:35:47;15.50;;;14.00;;
8964;SDS011;4517;49.020;12.066;2022-10-19T16:38:12;20.87;;;13.97;;
8964;SDS011;4517;49.020;12.066;2022-10-19T16:40:38;16.97;;;14.33;;
8964;SDS011;4517;49.020;12.066;2022-10-19T16:43:04;14.77;;;13.27;;
8964;SDS011;4517;49.020;12.066;2022-10-19T16:45:29;16.03;;;13.70;;
8964;SDS011;4517;49.020;12.066;2022-10-19T16:47:55;15.13;;;13.47;;
8964;SDS011;4517;49.020;12.066;2022-10-19T16:50:21;21.23;;;13.80;;
8964;SDS011;4517;49.020;12.066;2022-10-19T16:52:47;14.77;;;13.17;;
8964;SDS011;4517;49.020;12.066;2022-10-19T16:55:29;14.57;;;12.97;;
8964;SDS011;4517;49.020;12.066;2022-10-19T16:57:55;14.00;;;12.70;;
8964;SDS011;4517;49.020;12.066;2022-10-19T17:00:21;15.40;;;13.80;;
8964;SDS011;4517;49.020;12.066;2022-10-19T17:02:47;18.03;;;15.23;;
8964;SDS011;4517;49.020;12.066;2022-10-19T17:05:13;16.97;;;15.27;;
8964;SDS011;4517;49.020;12.066;2022-10-19T17:07:39;17.43;;;15.57;;
8964;SDS011;4517;49.020;12.066;2022-10-19T17:10:04;16.33;;;14.50;;
8964;SDS011;4517;49.020;12.066;2022-10-19T17:12:30;16.50;;;14.00;;
8964;SDS011;4517;49.020;12.066;2022-10-19T17:14:56;15.93;;;14.23;;
8964;SDS011;4517;49.020;12.066;2022-10-19T17:17:21;16.40;;;14.03;;
8964;SDS011;4517;49.020;12.066;2022-10-19T17:19:47;22.73;;;15.03;;